createdAt,value
2023-02-25T00:01:32.697Z,5.00
2023-02-25T00:04:07.511Z,5.10
2023-02-25T00:06:55.137Z,5.00
2023-02-25T00:09:40.306Z,5.00
2023-02-25T00:12:10.737Z,5.00
2023-02-25T00:14:43.678Z,4.70
2023-02-25T00:17:13.968Z,4.60
2023-02-25T00:19:41.424Z,4.60
2023-02-25T00:22:13.902Z,4.70
2023-02-25T00:24:47.140Z,4.80
2023-02-25T00:27:14.506Z,4.70
2023-02-25T00:29:45.717Z,4.60
2023-02-25T00:32:27.836Z,4.50
2023-02-25T00:35:12.983Z,4.50
2023-02-25T00:37:57.175Z,4.70
2023-02-25T00:41:00.008Z,4.60
2023-02-25T00:46:21.714Z,4.70
2023-02-25T00:48:59.987Z,4.70
2023-02-25T00:51:36.003Z,4.70
2023-02-25T00:54:13.132Z,4.60
2023-02-25T00:56:53.284Z,4.70
2023-02-25T00:59:23.420Z,4.70
2023-02-25T01:02:03.131Z,4.70
2023-02-25T01:04:36.279Z,4.70
2023-02-25T01:10:00.334Z,4.60
2023-02-25T01:12:30.574Z,4.50
2023-02-25T01:15:07.547Z,4.50
2023-02-25T01:17:37.802Z,4.40
2023-02-25T01:20:12.876Z,4.30
2023-02-25T01:22:47.839Z,4.40
2023-02-25T01:25:25.715Z,4.40
2023-02-25T01:27:57.242Z,4.40
2023-02-25T01:30:36.961Z,4.40
2023-02-25T01:33:10.473Z,4.30
2023-02-25T01:35:46.635Z,4.30
2023-02-25T01:38:19.559Z,4.40
2023-02-25T01:40:57.045Z,4.50
2023-02-25T01:43:24.471Z,4.60
2023-02-25T01:45:54.290Z,4.50
2023-02-25T01:48:39.527Z,4.40
2023-02-25T01:51:13.372Z,4.50
2023-02-25T01:53:48.390Z,4.50
2023-02-25T01:56:20.919Z,4.40
2023-02-25T01:58:55.021Z,4.50
2023-02-25T02:01:29.280Z,4.50
2023-02-25T02:04:11.270Z,4.70
2023-02-25T02:06:49.334Z,4.70
2023-02-25T02:09:48.582Z,4.80
2023-02-25T02:12:19.055Z,4.80
2023-02-25T02:15:09.310Z,4.70
2023-02-25T02:17:44.248Z,4.70
2023-02-25T02:20:23.382Z,4.70
2023-02-25T02:23:27.785Z,4.70
2023-02-25T02:26:38.889Z,4.70
2023-02-25T02:29:33.181Z,4.70
2023-02-25T02:32:22.007Z,4.60
2023-02-25T02:35:18.957Z,4.60
2023-02-25T02:42:11.101Z,4.60
2023-02-25T02:45:13.401Z,4.70
2023-02-25T02:48:02.948Z,4.60
2023-02-25T02:50:38.069Z,4.60
2023-02-25T02:53:35.153Z,4.60
2023-02-25T02:56:26.929Z,4.50
2023-02-25T02:59:33.369Z,4.50
2023-02-25T03:02:20.097Z,4.50
2023-02-25T03:08:33.792Z,4.50
2023-02-25T03:11:02.581Z,4.50
2023-02-25T03:13:45.806Z,4.50
2023-02-25T03:16:31.579Z,4.50
2023-02-25T03:19:07.923Z,4.60
2023-02-25T03:21:46.112Z,4.60
2023-02-25T03:24:26.471Z,4.60
2023-02-25T03:27:22.166Z,4.50
2023-02-25T03:30:04.361Z,4.50
2023-02-25T03:32:38.537Z,4.40
2023-02-25T03:35:15.002Z,4.30
2023-02-25T03:37:59.655Z,4.40
2023-02-25T03:40:31.578Z,4.40
2023-02-25T03:43:15.534Z,4.40
2023-02-25T03:45:45.757Z,4.40
2023-02-25T03:48:19.648Z,4.30
2023-02-25T03:51:07.496Z,4.30
2023-02-25T03:53:40.061Z,4.30
2023-02-25T03:56:11.870Z,4.40
2023-02-25T03:58:42.184Z,4.40
2023-02-25T04:01:17.719Z,4.40
2023-02-25T04:03:45.152Z,4.50
2023-02-25T04:06:13.554Z,4.40
2023-02-25T04:08:42.729Z,4.50
2023-02-25T04:11:10.079Z,4.50
2023-02-25T04:13:37.673Z,4.50
2023-02-25T04:16:05.839Z,4.50
2023-02-25T04:18:36.186Z,4.50
2023-02-25T04:21:06.607Z,4.60
2023-02-25T04:23:35.908Z,4.40
2023-02-25T04:26:03.634Z,4.40
2023-02-25T04:28:31.387Z,4.30
2023-02-25T04:31:17.532Z,4.20
2023-02-25T04:34:03.492Z,4.20
2023-02-25T04:36:35.778Z,4.20
2023-02-25T04:39:23.433Z,4.10
2023-02-25T04:41:57.520Z,4.00
2023-02-25T04:44:25.110Z,3.90
2023-02-25T04:47:11.414Z,3.80
2023-02-25T04:49:44.917Z,3.80
2023-02-25T04:52:21.179Z,3.80
2023-02-25T04:54:48.755Z,3.70
2023-02-25T04:57:16.402Z,3.70
2023-02-25T04:59:46.594Z,3.70
2023-02-25T05:02:33.157Z,3.70
2023-02-25T05:05:03.657Z,3.80
2023-02-25T05:07:43.179Z,3.80
2023-02-25T05:10:19.537Z,3.80
2023-02-25T05:12:56.011Z,3.90
2023-02-25T05:15:23.445Z,3.90
2023-02-25T05:17:55.408Z,4.00
2023-02-25T05:20:23.392Z,3.90
2023-02-25T05:22:50.769Z,3.80
2023-02-25T05:25:26.685Z,3.70
2023-02-25T05:28:00.118Z,3.70
2023-02-25T05:30:28.282Z,3.70
2023-02-25T05:33:06.133Z,3.70
2023-02-25T05:35:33.849Z,3.80
2023-02-25T05:38:07.757Z,3.80
2023-02-25T05:40:36.435Z,3.80
2023-02-25T05:43:09.690Z,3.80
2023-02-25T05:45:38.378Z,3.70
2023-02-25T05:48:11.791Z,3.80
2023-02-25T05:50:41.854Z,3.80
2023-02-25T05:53:14.802Z,3.80
2023-02-25T05:55:43.068Z,3.80
2023-02-25T05:58:10.666Z,3.70
2023-02-25T06:00:38.272Z,3.70
2023-02-25T06:03:12.911Z,3.70
2023-02-25T06:05:58.089Z,3.70
2023-02-25T06:11:35.087Z,3.70
2023-02-25T06:14:15.449Z,3.80
2023-02-25T06:16:50.629Z,3.80
2023-02-25T06:19:20.473Z,3.80
2023-02-25T06:21:47.837Z,3.80
2023-02-25T06:24:42.847Z,3.80
2023-02-25T06:27:26.824Z,3.70
2023-02-25T06:29:54.049Z,3.70
2023-02-25T06:32:28.493Z,3.70
2023-02-25T06:34:58.668Z,3.70
2023-02-25T06:37:29.528Z,3.80
2023-02-25T06:39:59.825Z,3.90
2023-02-25T06:42:27.093Z,3.90
2023-02-25T06:44:54.287Z,3.90
2023-02-25T06:47:22.929Z,4.00
2023-02-25T06:49:50.145Z,4.10
2023-02-25T06:52:45.357Z,4.10
2023-02-25T06:55:10.985Z,4.20
2023-02-25T06:57:38.378Z,4.20
2023-02-25T07:00:09.986Z,4.30
2023-02-25T07:02:37.541Z,4.30
2023-02-25T07:05:05.786Z,4.20
2023-02-25T07:07:33.219Z,4.30
2023-02-25T07:10:00.814Z,4.20
2023-02-25T07:12:28.215Z,4.20
2023-02-25T07:14:55.473Z,4.20
2023-02-25T07:17:22.765Z,4.20
2023-02-25T07:19:50.191Z,4.20
2023-02-25T07:22:18.725Z,4.10
2023-02-25T07:24:46.426Z,4.10
2023-02-25T07:27:14.477Z,4.10
2023-02-25T07:29:42.716Z,4.00
2023-02-25T07:32:11.139Z,4.10
2023-02-25T07:34:56.872Z,4.10
2023-02-25T07:37:45.528Z,4.10
2023-02-25T07:40:31.623Z,4.10
2023-02-25T07:43:19.317Z,4.20
2023-02-25T07:46:05.914Z,4.40
2023-02-25T07:48:33.716Z,4.50
2023-02-25T07:51:24.839Z,4.60
2023-02-25T07:53:54.520Z,4.60
2023-02-25T07:56:23.590Z,4.50
2023-02-25T07:58:53.640Z,4.60
2023-02-25T08:01:43.651Z,4.60
2023-02-25T08:04:20.069Z,4.60
2023-02-25T08:07:07.679Z,4.60
2023-02-25T08:09:54.590Z,4.70
2023-02-25T08:12:42.132Z,4.70
2023-02-25T08:15:28.046Z,4.80
2023-02-25T08:21:01.923Z,5.00
2023-02-25T08:23:30.778Z,4.90
2023-02-25T08:25:59.617Z,5.00
2023-02-25T08:28:34.252Z,5.00
2023-02-25T08:31:04.722Z,5.10
2023-02-25T08:33:32.403Z,5.10
2023-02-25T08:36:14.007Z,5.20
2023-02-25T08:38:41.535Z,5.30
2023-02-25T08:41:09.444Z,5.20
2023-02-25T08:43:38.036Z,5.10
2023-02-25T08:46:19.930Z,5.10
2023-02-25T08:49:07.126Z,4.90
2023-02-25T08:51:57.949Z,4.90
2023-02-25T08:54:43.699Z,4.90
2023-02-25T08:57:30.799Z,4.90
2023-02-25T08:59:58.155Z,5.00
2023-02-25T09:02:45.643Z,5.10
2023-02-25T09:05:31.609Z,5.40
2023-02-25T09:08:19.785Z,6.50
2023-02-25T09:11:10.816Z,7.30
2023-02-25T09:13:38.430Z,6.50
2023-02-25T09:16:25.772Z,6.30
2023-02-25T09:19:18.555Z,6.70
2023-02-25T09:22:07.826Z,8.20
2023-02-25T09:24:55.831Z,8.10
2023-02-25T09:27:41.727Z,8.50
2023-02-25T09:30:27.730Z,8.40
2023-02-25T09:33:14.733Z,8.70
2023-02-25T09:36:16.951Z,8.00
2023-02-25T09:39:03.158Z,8.80
2023-02-25T09:41:57.798Z,9.20
2023-02-25T09:44:36.459Z,9.50
2023-02-25T09:47:29.895Z,9.10
2023-02-25T09:50:27.086Z,8.50
2023-02-25T09:53:20.902Z,8.60
2023-02-25T09:56:08.647Z,8.20
2023-02-25T09:58:58.994Z,7.20
2023-02-25T10:02:00.663Z,6.70
2023-02-25T10:05:22.162Z,6.60
2023-02-25T10:08:27.184Z,7.90
2023-02-25T10:11:27.610Z,7.90
2023-02-25T10:14:34.644Z,7.10
2023-02-25T10:17:44.579Z,6.60
2023-02-25T10:20:39.017Z,6.70
2023-02-25T10:23:48.100Z,6.70
2023-02-25T10:26:49.471Z,6.40
2023-02-25T10:29:29.546Z,6.70
2023-02-25T10:32:24.223Z,6.80
2023-02-25T10:35:27.341Z,7.00
2023-02-25T10:38:13.667Z,7.30
2023-02-25T10:40:59.494Z,7.40
2023-02-25T10:43:27.614Z,7.20
2023-02-25T10:46:21.505Z,7.00
2023-02-25T10:49:26.711Z,6.80
2023-02-25T10:52:18.998Z,7.20
2023-02-25T10:55:04.997Z,7.20
2023-02-25T10:57:52.606Z,7.60
2023-02-25T11:00:40.156Z,7.60
2023-02-25T11:03:23.794Z,7.00
2023-02-25T11:06:18.563Z,7.40
2023-02-25T11:09:25.482Z,7.00
2023-02-25T11:12:20.887Z,6.80
2023-02-25T11:15:44.356Z,6.70
2023-02-25T11:18:33.096Z,6.60
2023-02-25T11:21:49.069Z,6.60
2023-02-25T11:24:37.700Z,5.60
2023-02-25T11:27:39.212Z,5.20
2023-02-25T11:30:33.159Z,5.20
2023-02-25T11:33:51.660Z,5.30
2023-02-25T11:36:39.890Z,6.00
2023-02-25T11:39:32.635Z,6.80
2023-02-25T11:42:24.560Z,7.70
2023-02-25T11:45:17.348Z,10.60
2023-02-25T11:48:06.832Z,11.00
2023-02-25T11:51:13.021Z,11.50
2023-02-25T11:54:29.954Z,11.30
2023-02-25T11:57:44.099Z,12.00
2023-02-25T12:00:58.649Z,15.80
2023-02-25T12:04:41.756Z,15.40
2023-02-25T12:07:39.091Z,15.30
2023-02-25T12:10:49.913Z,14.20
2023-02-25T12:14:02.677Z,12.10
2023-02-25T12:17:06.291Z,11.80
2023-02-25T12:20:17.999Z,10.00
2023-02-25T12:23:34.112Z,8.50
2023-02-25T12:26:36.753Z,8.90
2023-02-25T12:29:52.038Z,8.60
2023-02-25T12:32:59.977Z,8.30
2023-02-25T12:36:09.809Z,9.80
2023-02-25T12:39:12.580Z,12.60
2023-02-25T12:42:34.104Z,12.10
2023-02-25T12:45:36.387Z,10.40
2023-02-25T12:48:49.506Z,10.30
2023-02-25T12:52:03.609Z,9.70
2023-02-25T12:55:11.523Z,11.40
2023-02-25T12:58:16.614Z,11.40
2023-02-25T13:01:13.964Z,12.50
2023-02-25T13:04:21.706Z,12.40
2023-02-25T13:07:26.165Z,10.30
2023-02-25T13:10:32.893Z,9.70
2023-02-25T13:13:37.125Z,8.70
2023-02-25T13:16:53.653Z,8.10
2023-02-25T13:19:58.606Z,8.10
2023-02-25T13:23:22.692Z,8.10
2023-02-25T13:26:19.825Z,8.00
2023-02-25T13:28:58.930Z,7.50
2023-02-25T13:31:48.726Z,7.30
2023-02-25T13:34:42.512Z,7.30
2023-02-25T13:37:57.715Z,8.90
2023-02-25T13:41:05.847Z,10.70
2023-02-25T13:44:16.515Z,11.90
2023-02-25T13:47:32.694Z,12.80
2023-02-25T13:50:41.616Z,13.90
2023-02-25T13:53:44.499Z,14.50
2023-02-25T13:57:03.696Z,16.30
2023-02-25T14:00:09.222Z,14.20
2023-02-25T14:03:04.893Z,10.40
2023-02-25T14:06:05.822Z,7.90
2023-02-25T14:09:43.001Z,6.70
2023-02-25T14:12:28.961Z,5.50
2023-02-25T14:15:26.804Z,5.00
2023-02-25T14:18:20.145Z,4.50
2023-02-25T14:21:41.626Z,4.40
2023-02-25T14:24:53.379Z,4.40
2023-02-25T14:27:54.713Z,4.40
2023-02-25T14:31:06.715Z,4.50
2023-02-25T14:33:53.044Z,4.80
2023-02-25T14:36:59.430Z,4.80
2023-02-25T14:40:06.366Z,5.10
2023-02-25T14:42:42.866Z,7.00
2023-02-25T14:45:15.321Z,8.80
2023-02-25T14:48:05.089Z,10.40
2023-02-25T14:51:11.163Z,11.00
2023-02-25T14:53:50.264Z,12.40
2023-02-25T14:57:08.113Z,12.40
2023-02-25T15:00:25.470Z,11.80
2023-02-25T15:03:32.645Z,10.00
2023-02-25T15:06:14.406Z,8.90
2023-02-25T15:09:33.074Z,8.50
2023-02-25T15:12:39.485Z,7.90
2023-02-25T15:15:52.030Z,7.30
2023-02-25T15:19:06.458Z,6.70
2023-02-25T15:21:41.115Z,6.30
2023-02-25T15:24:29.422Z,6.00
2023-02-25T15:26:57.532Z,6.00
2023-02-25T15:29:43.071Z,5.90
2023-02-25T15:32:29.973Z,6.10
2023-02-25T15:35:06.899Z,6.60
2023-02-25T15:37:52.684Z,7.40
2023-02-25T15:40:45.073Z,7.60
2023-02-25T15:43:16.165Z,6.70
2023-02-25T15:46:07.863Z,6.20
2023-02-25T15:49:07.834Z,7.20
2023-02-25T15:52:14.629Z,7.90
2023-02-25T15:54:42.463Z,8.00
2023-02-25T15:57:27.323Z,8.40
2023-02-25T15:59:57.772Z,8.60
2023-02-25T16:02:36.211Z,8.40
2023-02-25T16:05:25.187Z,8.00
2023-02-25T16:08:24.064Z,7.80
2023-02-25T16:11:21.974Z,6.70
2023-02-25T16:13:53.389Z,6.30
2023-02-25T16:16:22.947Z,5.90
2023-02-25T16:19:12.600Z,5.40
2023-02-25T16:22:04.066Z,5.10
2023-02-25T16:24:52.635Z,5.00
2023-02-25T16:28:20.749Z,5.20
2023-02-25T16:31:25.045Z,5.40
2023-02-25T16:34:23.108Z,5.30
2023-02-25T16:37:24.012Z,5.20
2023-02-25T16:40:30.224Z,5.20
2023-02-25T16:43:20.036Z,4.60
2023-02-25T16:46:13.719Z,4.30
2023-02-25T16:49:04.714Z,4.20
2023-02-25T16:51:52.941Z,4.00
2023-02-25T16:54:39.675Z,3.80
2023-02-25T16:57:27.757Z,3.70
2023-02-25T17:00:14.229Z,3.60
2023-02-25T17:03:06.810Z,3.60
2023-02-25T17:06:06.918Z,3.40
2023-02-25T17:08:54.946Z,3.40
2023-02-25T17:11:40.754Z,3.30
2023-02-25T17:14:27.038Z,3.20
2023-02-25T17:17:33.069Z,3.20
2023-02-25T17:20:24.606Z,3.10
2023-02-25T17:23:13.248Z,3.10
2023-02-25T17:26:00.171Z,3.00
2023-02-25T17:28:49.277Z,2.90
2023-02-25T17:31:41.917Z,2.90
2023-02-25T17:34:34.233Z,2.80
2023-02-25T17:37:21.619Z,2.70
2023-02-25T17:39:50.310Z,2.70
2023-02-25T17:42:41.354Z,2.70
2023-02-25T17:45:50.122Z,2.70
2023-02-25T17:48:43.352Z,2.50
2023-02-25T17:51:38.267Z,2.50
2023-02-25T17:54:25.793Z,2.50
2023-02-25T17:57:22.777Z,2.50
2023-02-25T18:00:18.761Z,2.60
2023-02-25T18:03:21.266Z,2.60
2023-02-25T18:06:26.542Z,2.50
2023-02-25T18:09:41.982Z,2.60
2023-02-25T18:12:41.743Z,2.60
2023-02-25T18:15:18.252Z,2.60
2023-02-25T18:18:09.443Z,2.50
2023-02-25T18:20:46.434Z,2.50
2023-02-25T18:23:35.324Z,2.50
2023-02-25T18:26:25.722Z,2.50
2023-02-25T18:29:13.628Z,2.50
2023-02-25T18:31:44.639Z,2.40
2023-02-25T18:34:32.601Z,2.40
2023-02-25T18:37:22.699Z,2.40
2023-02-25T18:40:16.772Z,2.30
2023-02-25T18:43:04.856Z,2.20
2023-02-25T18:45:33.780Z,2.20
2023-02-25T18:48:21.104Z,2.10
2023-02-25T18:51:12.299Z,2.10
2023-02-25T18:53:59.779Z,2.00
2023-02-25T18:56:45.546Z,2.00
2023-02-25T18:59:33.778Z,2.10
2023-02-25T19:02:30.868Z,2.10
2023-02-25T19:05:05.339Z,2.00
2023-02-25T19:07:54.067Z,2.00
2023-02-25T19:10:40.216Z,1.90
2023-02-25T19:13:35.531Z,1.90
2023-02-25T19:16:16.268Z,1.90
2023-02-25T19:19:02.422Z,1.90
2023-02-25T19:21:49.983Z,1.90
2023-02-25T19:24:35.943Z,1.90
2023-02-25T19:27:28.825Z,1.70
2023-02-25T19:30:06.428Z,1.80
2023-02-25T19:32:55.481Z,1.80
2023-02-25T19:35:43.627Z,1.70
2023-02-25T19:38:31.610Z,1.80
2023-02-25T19:41:17.318Z,1.70
2023-02-25T19:43:55.062Z,1.70
2023-02-25T19:46:41.307Z,1.70
2023-02-25T19:49:29.283Z,1.70
2023-02-25T19:52:15.357Z,1.80
2023-02-25T19:55:01.905Z,1.70
2023-02-25T19:57:29.356Z,1.60
2023-02-25T20:00:22.713Z,1.70
2023-02-25T20:02:56.440Z,1.70
2023-02-25T20:05:46.590Z,1.60
2023-02-25T20:08:34.322Z,1.60
2023-02-25T20:11:21.055Z,1.60
2023-02-25T20:13:51.286Z,1.50
2023-02-25T20:16:40.685Z,1.50
2023-02-25T20:19:08.567Z,1.50
2023-02-25T20:21:57.189Z,1.50
2023-02-25T20:24:24.977Z,1.50
2023-02-25T20:27:11.147Z,1.40
2023-02-25T20:29:56.767Z,1.40
2023-02-25T20:32:33.980Z,1.40
2023-02-25T20:35:21.831Z,1.40
2023-02-25T20:38:38.229Z,1.40
2023-02-25T20:41:24.507Z,1.30
2023-02-25T20:43:52.117Z,1.30
2023-02-25T20:46:42.642Z,1.30
2023-02-25T20:49:29.744Z,1.20
2023-02-25T20:52:16.468Z,1.20
2023-02-25T20:54:52.508Z,1.20
2023-02-25T20:57:41.645Z,1.10
2023-02-25T21:00:17.067Z,1.10
2023-02-25T21:03:03.283Z,1.10
2023-02-25T21:05:53.601Z,1.00
2023-02-25T21:08:41.975Z,1.10
2023-02-25T21:11:31.524Z,1.00
2023-02-25T21:14:17.495Z,1.00
2023-02-25T21:17:09.555Z,1.00
2023-02-25T21:19:58.122Z,0.90
2023-02-25T21:22:47.390Z,0.90
2023-02-25T21:25:33.767Z,0.90
2023-02-25T21:28:08.787Z,0.90
2023-02-25T21:31:15.599Z,0.80
2023-02-25T21:33:58.644Z,0.80
2023-02-25T21:36:51.784Z,0.70
2023-02-25T21:39:19.275Z,0.70
2023-02-25T21:42:09.520Z,0.80
2023-02-25T21:44:42.437Z,0.70
2023-02-25T21:47:31.977Z,0.70
2023-02-25T21:50:19.699Z,0.60
2023-02-25T21:53:08.625Z,0.70
2023-02-25T21:56:11.801Z,0.80
2023-02-25T21:59:06.180Z,0.70
2023-02-25T22:02:07.353Z,0.70
2023-02-25T22:04:59.246Z,0.60
2023-02-25T22:07:42.180Z,0.70
2023-02-25T22:10:43.147Z,0.70
2023-02-25T22:13:37.230Z,0.70
2023-02-25T22:16:04.678Z,0.50
2023-02-25T22:18:51.920Z,0.60
2023-02-25T22:21:22.978Z,0.60
2023-02-25T22:24:10.494Z,0.50
2023-02-25T22:26:56.416Z,0.60
2023-02-25T22:29:42.288Z,0.50
2023-02-25T22:32:28.524Z,0.50
2023-02-25T22:35:18.741Z,0.50
2023-02-25T22:37:57.961Z,0.50
2023-02-25T22:40:45.706Z,0.50
2023-02-25T22:43:32.531Z,0.50
2023-02-25T22:46:23.075Z,0.50
2023-02-25T22:49:10.589Z,0.50
2023-02-25T22:51:58.169Z,0.50
2023-02-25T22:54:43.785Z,0.50
2023-02-25T22:57:29.887Z,0.50
2023-02-25T23:00:16.898Z,0.60
2023-02-25T23:03:03.046Z,0.60
2023-02-25T23:05:50.206Z,0.60
2023-02-25T23:08:38.683Z,0.60
2023-02-25T23:11:30.083Z,0.50
2023-02-25T23:14:18.290Z,0.50
2023-02-25T23:17:04.633Z,0.50
2023-02-25T23:19:50.353Z,0.40
2023-02-25T23:22:36.367Z,0.40
2023-02-25T23:25:22.224Z,0.40
2023-02-25T23:28:09.539Z,0.50
2023-02-25T23:30:57.034Z,0.60
2023-02-25T23:33:24.265Z,0.60
2023-02-25T23:36:11.629Z,0.70
2023-02-25T23:39:00.461Z,0.70
2023-02-25T23:44:32.099Z,0.80
2023-02-25T23:47:19.613Z,0.90
2023-02-25T23:50:06.917Z,0.90
2023-02-25T23:52:53.846Z,1.00
2023-02-25T23:55:24.875Z,0.90
2023-02-25T23:58:12.416Z,1.00
